Latest Weather Observations for Rowley Shoals

IDW60801

Issued at 7:05 am WST Tuesday 2 September 2014 (issued every 30 minutes, with the page automatically refreshed every 10 minutes)

About weather observations | Map of weather stations | Latest weather observations for WA | Other Formats
Station Details ID: 200713 Name: ROWLEY SHOALS Lat: -17.52 Lon: 118.95 Height: 0.0 m
Data from the previous 72 hours. | See also: Recent months for locations in Western Australia
Date/Time
WST
Temp
°C
App
Temp
°C
Dew
Point
Rel
Hum
%
Delta-T
°C
Wind Press
QNH
hPa
Press
MSL
hPa
Rain
since 9 am
mm
Dir
 
Spd
km/h
Gust
km/h
Spd
kts
Gust
kts
02/07:00am - - - - - S 11 13 6 7 1015.1 - -
02/06:30am - - - - - S 6 11 3 6 1014.9 - -
02/06:00am - - - - - CALM 0 0 0 0 1014.6 1014.6 -
02/05:30am - - - - - CALM 0 0 0 0 1014.3 - -
02/05:00am - - - - - CALM 0 0 0 0 1014.0 1014.0 -
02/04:30am - - - - - CALM 0 0 0 0 1013.9 - -
02/04:00am - - - - - CALM 0 0 0 0 1013.7 1013.8 -
02/03:30am - - - - - NNW 6 7 3 4 1013.5 - -
02/03:00am - - - - - N 7 9 4 5 1013.4 1013.4 -
02/02:30am - - - - - N 11 13 6 7 1013.3 - -
02/02:00am - - - - - NNE 15 20 8 11 1013.0 1013.4 -
02/01:30am - - - - - CALM 0 0 0 0 1013.8 - -
02/01:00am - - - - - S 2 0 1 0 1014.1 1014.1 -
02/12:30am - - - - - S 6 7 3 4 1014.4 - -
02/12:00am - - - - - SSW 6 6 3 3 1014.6 1014.6 -
 
Date/Time
WST
Temp
°C
App
Temp
°C
Dew
Point
Rel
Hum
%
Delta-T
°C
Wind Press
QNH
hPa
Press
MSL
hPa
Rain
since 9 am
mm
Dir
 
Spd
km/h
Gust
km/h
Spd
kts
Gust
kts
01/11:30pm - - - - - WSW 6 7 3 4 1014.8 - -
01/11:00pm - - - - - W 6 7 3 4 1014.9 1014.9 -
01/10:30pm - - - - - W 7 9 4 5 1015.0 - -
01/10:00pm - - - - - ESE 4 0 2 0 1015.3 1015.0 -
01/09:30pm - - - - - CALM 0 0 0 0 1015.6 - -
01/09:00pm - - - - - E 4 7 2 4 1015.6 1015.6 -
01/08:30pm - - - - - E 7 9 4 5 1015.4 - -
01/08:00pm - - - - - E 9 11 5 6 1015.3 1015.3 -
01/07:30pm - - - - - ESE 11 13 6 7 1014.9 - -
01/07:00pm - - - - - ESE 9 11 5 6 1014.5 1014.6 -
01/06:30pm - - - - - ESE 9 11 5 6 1014.1 - -
01/06:00pm - - - - - ESE 11 13 6 7 1014.1 1014.1 -
01/05:30pm - - - - - ESE 11 13 6 7 1014.0 - -
01/05:00pm - - - - - ESE 13 15 7 8 1013.9 1013.9 -
01/04:30pm - - - - - ESE 11 13 6 7 1013.8 - -
01/04:00pm - - - - - ESE 11 13 6 7 1013.8 1013.8 -
01/03:30pm - - - - - SE 11 13 6 7 1013.8 - -
01/03:00pm - - - - - SE 11 13 6 7 1013.8 1013.8 -
01/02:30pm - - - - - SE 11 13 6 7 1014.1 - -
01/02:00pm - - - - - ESE 11 11 6 6 1014.2 1014.2 -
01/01:30pm - - - - - SE 11 13 6 7 1014.5 - -
01/01:00pm - - - - - SE 11 15 6 8 1014.5 1014.5 -
01/12:30pm - - - - - SE 13 15 7 8 1014.7 - -
01/12:00pm - - - - - SE 13 15 7 8 1015.0 1015.0 -
01/11:30am - - - - - SE 13 15 7 8 1015.5 - -
01/11:00am - - - - - SSE 13 15 7 8 1015.9 1015.8 -
01/10:30am - - - - - S 11 13 6 7 1016.1 - -
01/10:00am - - - - - S 11 15 6 8 1016.2 1016.2 -
01/09:30am - - - - - S 11 17 6 9 1016.0 - -
01/09:00am - - - - - S 11 15 6 8 1015.7 1015.7 -
01/08:30am - - - - - S 13 17 7 9 1015.4 - -
01/08:00am - - - - - S 11 11 6 6 1015.1 1015.2 -
01/07:30am - - - - - S 9 11 5 6 1014.7 - -
01/07:00am - - - - - S 9 11 5 6 1014.3 1014.4 -
01/06:30am - - - - - SSW 9 11 5 6 1014.0 - -
01/06:00am - - - - - SSW 9 11 5 6 1013.8 1013.8 -
01/05:30am - - - - - SSW 7 9 4 5 1013.4 - -
01/05:00am - - - - - CALM 0 0 0 0 1013.2 1013.2 -
01/04:30am - - - - - S 2 6 1 3 1013.0 - -
01/04:00am - - - - - CALM 0 0 0 0 1012.9 1013.0 -
01/03:30am - - - - - SSW 4 7 2 4 1012.7 - -
01/03:00am - - - - - SSW 7 7 4 4 1012.8 1012.7 -
01/02:30am - - - - - SSW 9 9 5 5 1013.0 - -
01/02:00am - - - - - SW 7 9 4 5 1013.3 1013.2 -
01/01:30am - - - - - WSW 11 13 6 7 1013.4 - -
01/01:00am - - - - - WSW 13 15 7 8 1013.6 1013.5 -
01/12:30am - - - - - WSW 15 17 8 9 1013.7 - -
01/12:00am - - - - - WSW 13 15 7 8 1014.0 1013.9 -
 
Date/Time
WST
Temp
°C
App
Temp
°C
Dew
Point
Rel
Hum
%
Delta-T
°C
Wind Press
QNH
hPa
Press
MSL
hPa
Rain
since 9 am
mm
Dir
 
Spd
km/h
Gust
km/h
Spd
kts
Gust
kts
31/11:30pm - - - - - WSW 11 13 6 7 1014.0 - -
31/11:00pm - - - - - WSW 11 9 6 5 1014.0 1013.9 -
31/10:30pm - - - - - CALM 0 0 0 0 1014.1 - -
31/10:00pm - - - - - CALM 0 0 0 0 1014.2 1014.2 -
31/09:30pm - - - - - CALM 0 0 0 0 1014.4 - -
31/09:00pm - - - - - CALM 0 0 0 0 1014.5 1014.5 -
31/08:30pm - - - - - CALM 0 0 0 0 1014.3 - -
31/08:00pm - - - - - S 4 7 2 4 1013.9 1014.0 -
31/07:30pm - - - - - ESE 7 7 4 4 1013.6 - -
31/07:00pm - - - - - SE 7 11 4 6 1013.4 1013.4 -
31/06:30pm - - - - - SE 11 13 6 7 1013.1 - -
31/06:00pm - - - - - SE 11 15 6 8 1013.0 1013.0 -
31/05:30pm - - - - - SSE 15 17 8 9 1012.7 - -
31/05:00pm - - - - - SSE 13 17 7 9 1012.7 1012.7 -
31/04:30pm - - - - - S 11 15 6 8 1012.8 - -
31/04:00pm - - - - - S 11 15 6 8 1012.8 1012.8 -
31/03:30pm - - - - - S 9 13 5 7 1012.9 - -
31/03:00pm - - - - - S 11 15 6 8 1012.9 1012.9 -
31/02:30pm - - - - - SSE 11 13 6 7 1013.1 - -
31/02:00pm - - - - - SSE 9 11 5 6 1013.4 1013.2 -
31/01:30pm - - - - - SE 9 11 5 6 1013.7 - -
31/01:00pm - - - - - ESE 11 13 6 7 1014.0 1013.9 -
31/12:30pm - - - - - ESE 13 15 7 8 1014.2 - -
31/12:00pm - - - - - ESE 15 17 8 9 1014.5 1014.5 -
31/11:30am - - - - - SE 17 20 9 11 1014.5 - -
31/11:00am - - - - - SE 17 22 9 12 1014.8 1014.7 -
31/10:30am - - - - - SE 22 24 12 13 1015.1 - -
31/10:00am - - - - - SSE 22 26 12 14 1015.3 1015.2 -
31/09:30am - - - - - SSE 22 24 12 13 1015.3 - -
31/09:00am - - - - - SSE 20 20 11 11 1015.3 1015.3 -
31/08:30am - - - - - SSE 15 20 8 11 1015.4 - -
31/08:00am - - - - - SSE 17 20 9 11 1015.3 1015.3 -
31/07:30am - - - - - S 11 15 6 8 1015.0 - -
31/07:00am - - - - - S 13 15 7 8 1014.5 1014.6 -
31/06:30am - - - - - S 11 17 6 9 1014.2 - -
31/06:00am - - - - - S 7 9 4 5 1014.0 1014.1 -
31/05:30am - - - - - S 6 7 3 4 1013.9 - -
31/05:00am - - - - - S 6 7 3 4 1013.8 1013.9 -
31/04:30am - - - - - CALM 0 0 0 0 1013.9 - -
31/04:00am - - - - - CALM 0 0 0 0 1013.8 1013.7 -
31/03:00am - - - - - SE 6 7 3 4 1013.5 1013.5 -
31/02:30am - - - - - SE 7 9 4 5 1013.6 - -
31/02:00am - - - - - ESE 6 7 3 4 1013.8 1013.8 -
31/01:30am - - - - - S 4 7 2 4 1013.9 - -
31/01:00am - - - - - S 9 13 5 7 1013.9 1013.9 -
31/12:30am - - - - - SSW 11 13 6 7 1014.1 - -
31/12:00am - - - - - SSW 11 11 6 6 1014.3 1014.3 -
 
Date/Time
WST
Temp
°C
App
Temp
°C
Dew
Point
Rel
Hum
%
Delta-T
°C
Wind Press
QNH
hPa
Press
MSL
hPa
Rain
since 9 am
mm
Dir
 
Spd
km/h
Gust
km/h
Spd
kts
Gust
kts
30/11:30pm - - - - - SSW 9 13 5 7 1014.3 - -
30/11:00pm - - - - - SSW 9 11 5 6 1014.4 1014.4 -
30/10:30pm - - - - - SSE 11 11 6 6 1014.7 - -
30/10:00pm - - - - - SE 11 13 6 7 1014.9 1014.9 -
30/09:30pm - - - - - SSE 15 15 8 8 1015.1 - -
30/09:00pm - - - - - SSE 15 17 8 9 1015.2 1015.2 -
30/08:30pm - - - - - SSE 17 19 9 10 1015.3 - -
30/08:00pm - - - - - SSE 17 20 9 11 1015.1 1015.2 -
30/07:30pm - - - - - SSE 17 20 9 11 1014.9 - -
30/07:00pm - - - - - SSE 17 20 9 11 1014.8 1014.8 -
30/06:30pm - - - - - SE 17 20 9 11 1014.4 - -
30/06:00pm - - - - - SSE 17 20 9 11 1014.3 1014.3 -
30/05:30pm - - - - - SSE 22 24 12 13 1014.1 - -
30/05:00pm - - - - - SSE 22 26 12 14 1013.9 1013.9 -
30/04:30pm - - - - - SSE 22 26 12 14 1013.8 - -
30/04:00pm - - - - - SSE 20 26 11 14 1013.7 1013.8 -
30/03:30pm - - - - - SSE 19 22 10 12 1013.8 - -
30/03:00pm - - - - - SSE 20 24 11 13 1013.8 1013.9 -
30/02:30pm - - - - - S 19 26 10 14 1013.9 - -
30/02:00pm - - - - - S 19 24 10 13 1013.9 1013.9 -
30/01:30pm - - - - - S 20 28 11 15 1014.1 - -
30/01:00pm - - - - - SSE 22 26 12 14 1014.4 1014.3 -
30/12:30pm - - - - - SSE 20 26 11 14 1014.7 - -
30/12:00pm - - - - - S 15 17 8 9 1015.1 1014.9 -
30/11:30am - - - - - SSE 15 20 8 11 1015.6 - -
30/11:00am - - - - - SSE 19 22 10 12 1016.1 1016.0 -
30/10:30am - - - - - SSE 20 22 11 12 1016.4 - -
30/10:00am - - - - - SSE 19 22 10 12 1016.5 1016.5 -
30/09:30am - - - - - SSE 19 22 10 12 1016.8 - -
30/09:00am - - - - - SSE 17 20 9 11 1016.7 1016.7 -
30/08:30am - - - - - SSE 19 20 10 11 1016.7 - -
30/08:00am - - - - - SSE 17 19 9 10 1016.4 1016.5 -
30/07:30am - - - - - SSE 15 17 8 9 1016.1 - -

Other Formats:

Comma delimited format used in spreadsheet applications
http://www.bom.gov.au/fwo/IDW60801/IDW60801.94207.axf

JavaScript Object Notation format (JSON) in row-major order
http://www.bom.gov.au/fwo/IDW60801/IDW60801.94207.json